Flugplatz Weißenhorn

Für EDNW sind keine METAR/TAF Berichte vorhanden.
Es werden die Flugwettermeldungen vom Flugplatz Laupheim Airport in 18 km Entfernung angezeigt.

Bericht für ETHL

vom 07.12. um 17:20 UTC

Wind 4 kt aus 130°

Sichtweite 10 km oder mehr

gering bewölkt in 24000 ft

Temperatur 0.0°C

Taupunkt -2.0°C

Luftfeuchtigkeit 86%

Luftdruck 1008 hPa

ETHL 071720Z 13004KT 9999 FEW240 00/M02 Q1008 BLU+BLU+

Prognose für ETHL

vom 07.12. um 17:20 UTC

Zwischen 18:00 UTC und 01:00 UTC

Wind 5 kt aus 130°

Sichtweite 10 km oder mehr

keine signifikanten Wettererscheinungen

gering bewölkt in 1500 ft

aufgelockert bewölkt in 3000 ft


Am 08.12. zwischen 01:00 und 03:00 UTC übergehend zu

Wind 5 kt aus 180°

Sichtweite 3000 m

schwacher Schnee

feuchter Dunst

aufgelockert bewölkt in 1200 ft

aufgebrochene Bewölkung in 2000 ft

TAF ETHL 071720Z 0718/0803 13005KT 9999 NSW FEW015 SCT030 BECMG 0801/0803 18005KT 3000 -SN BR SCT012 BKN020
Impressum